Holliday, Missouri
Current Conditions -  °F | °C
As of 4:54 PM on Monday 24 Nov 2014 (Local Time) from KCOU Reporting Station
Overcast Overcast  
Wind Chill: 30°   Ceiling: 3800
Heat Index: 37°   Visibility: 10mi
Dew Point: 26°   Wind: 10mph
Humidity: 65%   Direction: 280°W
Pressure: 29.88"   Gusts: NA
Location:  39.49°N, 92.13°W
Report Text: KCOU 242254Z 28009KT 10SM OVC038 03/M03 A2988 RMK AO2 SLP121 T00281033
Loading
Personal Weather Stations






























Interactive Weather Map New forecast layout! Learn more

10-Day Weather Forecast

Advertisements
Track Severe Weather on mobile